Flight Track Log - Related Links

Times and Time Zones

All times are in EDT time to prevent confusion due to time zone crossing. See the N775NC flight status page for this flight to view local times or setup timezone preferences in your user account.

Time Position Orientation Groundspeed Altitude Reporting Facility
EDT Latitude Longitude Course Direction KTS MPH feet Rate Location/Type
Tue 12:10:55 PM 33.6308 -84.3906 59° Northeast 398 458 2,400  Level Atlanta Center
Tue 12:11:55 PM 33.6122 -84.3156 107° East 240 276 4,700 2,269 Climbing Atlanta Center
Tue 12:12:54 PM 33.6167 -84.2167 87° East 286 329 6,900 2,521 Climbing Atlanta TRACON
Tue 12:13:00 PM 33.8608 -84.0444 58° Northeast  Level Estimated
Tue 12:13:54 PM 33.6000 -84.1167 101° East 286 329 9,700  Level Atlanta TRACON
Tue 12:14:00 PM 33.8949 -83.9344 70° East  Level FlightAware Approximate
Tue 12:14:55 PM 33.6147 -84.0289 79° East 314 361 10,800  Level Atlanta Center
Tue 12:15:00 PM 33.9288 -83.8244 70° East  Level FlightAware Approximate
Tue 12:15:55 PM 33.6731 -83.9364 53° Northeast 314 361 12,900  Level Atlanta Center
Tue 12:16:00 PM 33.9869 -83.7300 59° Northeast  Level Estimated
Tue 12:16:55 PM 33.7294 -83.8414 54° Northeast 341 392 14,800  Level Atlanta Center
Tue 12:17:55 PM 33.7875 -83.7389 56° Northeast 363 418 16,300 1,550 Climbing Atlanta Center
Tue 12:18:55 PM 33.8519 -83.6261 55° Northeast 371 427 17,900 1,550 Climbing Atlanta Center
Tue 12:19:55 PM 33.9183 -83.5231 52° Northeast 384 442 19,400 1,450 Climbing Atlanta Center
Tue 12:20:55 PM 33.9931 -83.4225 48° Northeast 394 453 20,800 800 Climbing Atlanta Center
Tue 12:21:55 PM 34.0656 -83.3117 52° Northeast 399 459 21,000 -1,000 Climbing Atlanta Center
Tue 12:22:55 PM 34.1461 -83.2031 48° Northeast 429 494 18,800 -2,450 Descending Atlanta Center
Tue 12:23:55 PM 34.2206 -83.1017 48° Northeast 416 479 16,100 -2,850 Descending Atlanta Center
Tue 12:24:55 PM 34.2908 -83.0003 50° Northeast 390 449 13,100 -2,450 Descending Atlanta Center
Tue 12:25:55 PM 34.3608 -82.9039 49° Northeast 383 441 11,200 -1,100 Descending Atlanta Center
Tue 12:26:55 PM 34.4206 -82.8125 52° Northeast 368 423 10,900 -650 Descending Atlanta Center
Tue 12:27:55 PM 34.4864 -82.7283 46° Northeast 348 400 9,900 -800 Descending Atlanta Center
Tue 12:28:55 PM 34.5333 -82.6419 57° Northeast 326 375 9,300 -1,050 Descending Atlanta Center
Tue 12:29:55 PM 34.5892 -82.5753 44° Northeast 296 341 7,800 -1,600 Descending Atlanta Center
Tue 12:30:55 PM 34.6403 -82.5011 50° Northeast 282 325 6,100 -1,450 Descending Atlanta Center
Tue 12:31:55 PM 34.6831 -82.4272 55° Northeast 272 313 4,900 -950 Descending Atlanta Center
Tue 12:32:55 PM 34.7281 -82.3581 52° Northeast 267 307 4,200 -800 Descending Atlanta Center
Tue 12:33:55 PM 34.7775 -82.3089 39° Northeast 244 281 3,300 -950 Descending Atlanta Center
Tue 12:34:55 PM 34.8189 -82.2728 36° Northeast 226 260 2,300 -1,000 Descending Atlanta Center

Login

Don't have an account? Register now (free) for customized features, flight alerts, and more!